Terminal Aerodrome Forecast
Issued by NWS La Crosse, WI

Home | Current Version | Previous Version | Text Only | Print | Product List | Glossary On
Versions: 1 2 3 4 5 6 7 8 9 10 11 12 13 14 15 16 17 18 19 20
000
FTUS43 KARX 250520
TAFLSE
TAF
KLSE 250520Z 2506/2606 34015G22KT P6SM OVC035
      TEMPO 2506/2507 5SM HZ BKN025
     FM250900 32010G28KT P6SM SCT050
     FM252100 28008KT P6SM SCT200
     FM260200 22004KT P6SM BKN110=

USA.gov is the U.S. government's official web portal to all federal, state and local government web resources and services.